sensor_id;sensor_type;location;lat;lon;timestamp;temperature;humidity
7738;DHT22;29398;45.328;5.558;2024-03-07T00:00:18;5.20;99.90
7738;DHT22;29398;45.328;5.558;2024-03-07T00:01:20;5.20;99.90
7738;DHT22;29398;45.328;5.558;2024-03-07T00:02:23;5.20;99.90
7738;DHT22;29398;45.328;5.558;2024-03-07T00:03:25;5.20;99.90
7738;DHT22;29398;45.328;5.558;2024-03-07T00:04:26;5.20;99.90
7738;DHT22;29398;45.328;5.558;2024-03-07T00:05:28;5.20;99.90
7738;DHT22;29398;45.328;5.558;2024-03-07T00:06:29;5.20;99.90
7738;DHT22;29398;45.328;5.558;2024-03-07T00:07:31;5.10;99.90
7738;DHT22;29398;45.328;5.558;2024-03-07T00:08:32;5.10;99.90
7738;DHT22;29398;45.328;5.558;2024-03-07T00:09:34;5.20;99.90
7738;DHT22;29398;45.328;5.558;2024-03-07T00:10:36;5.20;99.90
7738;DHT22;29398;45.328;5.558;2024-03-07T00:11:38;5.20;99.90
7738;DHT22;29398;45.328;5.558;2024-03-07T00:12:40;5.20;99.90
7738;DHT22;29398;45.328;5.558;2024-03-07T00:13:42;5.20;99.90
7738;DHT22;29398;45.328;5.558;2024-03-07T00:14:43;5.20;99.90
7738;DHT22;29398;45.328;5.558;2024-03-07T00:15:45;5.30;99.90
7738;DHT22;29398;45.328;5.558;2024-03-07T00:16:46;5.30;99.90
7738;DHT22;29398;45.328;5.558;2024-03-07T00:17:50;5.30;99.90
7738;DHT22;29398;45.328;5.558;2024-03-07T00:18:51;5.30;99.90
7738;DHT22;29398;45.328;5.558;2024-03-07T00:19:53;5.30;99.90
7738;DHT22;29398;45.328;5.558;2024-03-07T00:20:55;5.30;99.90
7738;DHT22;29398;45.328;5.558;2024-03-07T00:21:57;5.30;99.90
7738;DHT22;29398;45.328;5.558;2024-03-07T00:22:58;5.30;99.90
7738;DHT22;29398;45.328;5.558;2024-03-07T00:24:00;5.30;99.90
7738;DHT22;29398;45.328;5.558;2024-03-07T00:25:01;5.30;99.90
7738;DHT22;29398;45.328;5.558;2024-03-07T00:26:03;5.30;99.90
7738;DHT22;29398;45.328;5.558;2024-03-07T00:27:05;5.30;99.90
7738;DHT22;29398;45.328;5.558;2024-03-07T00:28:06;5.30;99.90
7738;DHT22;29398;45.328;5.558;2024-03-07T00:29:08;5.30;99.90
7738;DHT22;29398;45.328;5.558;2024-03-07T00:30:09;5.30;99.90
7738;DHT22;29398;45.328;5.558;2024-03-07T00:31:10;5.30;99.90
7738;DHT22;29398;45.328;5.558;2024-03-07T00:32:12;5.20;99.90
7738;DHT22;29398;45.328;5.558;2024-03-07T00:33:16;5.20;99.90
7738;DHT22;29398;45.328;5.558;2024-03-07T00:34:18;5.20;99.90
7738;DHT22;29398;45.328;5.558;2024-03-07T00:35:20;5.20;99.90
7738;DHT22;29398;45.328;5.558;2024-03-07T00:36:22;5.20;99.90
7738;DHT22;29398;45.328;5.558;2024-03-07T00:37:23;5.10;99.90
7738;DHT22;29398;45.328;5.558;2024-03-07T00:38:25;5.10;99.90
7738;DHT22;29398;45.328;5.558;2024-03-07T00:39:27;5.10;99.90
7738;DHT22;29398;45.328;5.558;2024-03-07T00:40:32;5.10;99.90
7738;DHT22;29398;45.328;5.558;2024-03-07T00:41:33;5.00;99.90
7738;DHT22;29398;45.328;5.558;2024-03-07T00:42:35;4.90;99.90
7738;DHT22;29398;45.328;5.558;2024-03-07T00:43:36;4.90;99.90
7738;DHT22;29398;45.328;5.558;2024-03-07T00:44:38;4.90;99.90
7738;DHT22;29398;45.328;5.558;2024-03-07T00:45:39;4.90;99.90
7738;DHT22;29398;45.328;5.558;2024-03-07T00:46:41;4.90;99.90
7738;DHT22;29398;45.328;5.558;2024-03-07T00:47:42;4.90;99.90
7738;DHT22;29398;45.328;5.558;2024-03-07T00:48:46;4.90;99.90
7738;DHT22;29398;45.328;5.558;2024-03-07T00:49:47;4.80;99.90
7738;DHT22;29398;45.328;5.558;2024-03-07T00:50:49;4.90;99.90
7738;DHT22;29398;45.328;5.558;2024-03-07T00:51:50;4.90;99.90
7738;DHT22;29398;45.328;5.558;2024-03-07T00:52:52;4.90;99.90
7738;DHT22;29398;45.328;5.558;2024-03-07T00:53:53;4.90;99.90
7738;DHT22;29398;45.328;5.558;2024-03-07T00:54:55;4.90;99.90
7738;DHT22;29398;45.328;5.558;2024-03-07T00:55:56;4.90;99.90
7738;DHT22;29398;45.328;5.558;2024-03-07T00:56:58;4.90;99.90
7738;DHT22;29398;45.328;5.558;2024-03-07T00:57:59;4.90;99.90
7738;DHT22;29398;45.328;5.558;2024-03-07T00:59:01;4.90;99.90
7738;DHT22;29398;45.328;5.558;2024-03-07T01:00:02;4.90;99.90
7738;DHT22;29398;45.328;5.558;2024-03-07T01:01:12;4.90;99.90
7738;DHT22;29398;45.328;5.558;2024-03-07T01:02:13;4.90;99.90
7738;DHT22;29398;45.328;5.558;2024-03-07T01:03:17;4.90;99.90
7738;DHT22;29398;45.328;5.558;2024-03-07T01:04:20;4.90;99.90
7738;DHT22;29398;45.328;5.558;2024-03-07T01:05:23;4.90;99.90
7738;DHT22;29398;45.328;5.558;2024-03-07T01:06:24;4.90;99.90
7738;DHT22;29398;45.328;5.558;2024-03-07T01:07:25;5.00;99.90
7738;DHT22;29398;45.328;5.558;2024-03-07T01:08:28;5.00;99.90
7738;DHT22;29398;45.328;5.558;2024-03-07T01:09:33;5.00;99.90
7738;DHT22;29398;45.328;5.558;2024-03-07T01:10:36;5.00;99.90
7738;DHT22;29398;45.328;5.558;2024-03-07T01:11:37;5.00;99.90
7738;DHT22;29398;45.328;5.558;2024-03-07T01:12:39;5.10;99.90
7738;DHT22;29398;45.328;5.558;2024-03-07T01:13:40;5.10;99.90
7738;DHT22;29398;45.328;5.558;2024-03-07T01:14:42;5.10;99.90
7738;DHT22;29398;45.328;5.558;2024-03-07T01:15:43;5.10;99.90
7738;DHT22;29398;45.328;5.558;2024-03-07T01:16:44;5.10;99.90
7738;DHT22;29398;45.328;5.558;2024-03-07T01:17:47;5.10;99.90
7738;DHT22;29398;45.328;5.558;2024-03-07T01:18:48;5.10;99.90
7738;DHT22;29398;45.328;5.558;2024-03-07T01:19:52;5.10;99.90
7738;DHT22;29398;45.328;5.558;2024-03-07T01:20:53;5.10;99.90
7738;DHT22;29398;45.328;5.558;2024-03-07T01:21:55;5.10;99.90
7738;DHT22;29398;45.328;5.558;2024-03-07T01:22:56;5.10;99.90
7738;DHT22;29398;45.328;5.558;2024-03-07T01:23:58;5.10;99.90
7738;DHT22;29398;45.328;5.558;2024-03-07T01:25:00;5.10;99.90
7738;DHT22;29398;45.328;5.558;2024-03-07T01:26:02;5.10;99.90
7738;DHT22;29398;45.328;5.558;2024-03-07T01:27:04;5.00;99.90
7738;DHT22;29398;45.328;5.558;2024-03-07T01:28:05;5.10;99.90
7738;DHT22;29398;45.328;5.558;2024-03-07T01:29:07;5.10;99.90
7738;DHT22;29398;45.328;5.558;2024-03-07T01:30:09;5.10;99.90
7738;DHT22;29398;45.328;5.558;2024-03-07T01:31:12;5.10;99.90
7738;DHT22;29398;45.328;5.558;2024-03-07T01:32:13;5.10;99.90
7738;DHT22;29398;45.328;5.558;2024-03-07T01:33:15;5.10;99.90
7738;DHT22;29398;45.328;5.558;2024-03-07T01:34:16;5.20;99.90
7738;DHT22;29398;45.328;5.558;2024-03-07T01:35:20;5.10;99.90
7738;DHT22;29398;45.328;5.558;2024-03-07T01:36:21;5.10;99.90
7738;DHT22;29398;45.328;5.558;2024-03-07T01:37:23;5.10;99.90
7738;DHT22;29398;45.328;5.558;2024-03-07T01:38:24;5.10;99.90
7738;DHT22;29398;45.328;5.558;2024-03-07T01:39:26;5.10;99.90
7738;DHT22;29398;45.328;5.558;2024-03-07T01:40:27;5.10;99.90
7738;DHT22;29398;45.328;5.558;2024-03-07T01:41:29;5.00;99.90
7738;DHT22;29398;45.328;5.558;2024-03-07T01:42:30;5.00;99.90
7738;DHT22;29398;45.328;5.558;2024-03-07T01:43:32;5.00;99.90
7738;DHT22;29398;45.328;5.558;2024-03-07T01:44:33;5.00;99.90
7738;DHT22;29398;45.328;5.558;2024-03-07T01:45:35;4.90;99.90
7738;DHT22;29398;45.328;5.558;2024-03-07T01:46:38;4.80;99.90
7738;DHT22;29398;45.328;5.558;2024-03-07T01:47:39;4.80;99.90
7738;DHT22;29398;45.328;5.558;2024-03-07T01:48:40;4.90;99.90
7738;DHT22;29398;45.328;5.558;2024-03-07T01:49:42;4.90;99.90
7738;DHT22;29398;45.328;5.558;2024-03-07T01:50:44;4.90;99.90
7738;DHT22;29398;45.328;5.558;2024-03-07T01:51:47;4.90;99.90
7738;DHT22;29398;45.328;5.558;2024-03-07T01:52:49;4.80;99.90
7738;DHT22;29398;45.328;5.558;2024-03-07T01:53:52;4.90;99.90
7738;DHT22;29398;45.328;5.558;2024-03-07T01:54:54;4.90;99.90
7738;DHT22;29398;45.328;5.558;2024-03-07T01:55:56;4.90;99.90
7738;DHT22;29398;45.328;5.558;2024-03-07T01:56:59;4.90;99.90
7738;DHT22;29398;45.328;5.558;2024-03-07T01:58:02;4.90;99.90
7738;DHT22;29398;45.328;5.558;2024-03-07T01:59:05;4.90;99.90
7738;DHT22;29398;45.328;5.558;2024-03-07T02:00:09;4.90;99.90
7738;DHT22;29398;45.328;5.558;2024-03-07T02:01:11;4.80;99.90
7738;DHT22;29398;45.328;5.558;2024-03-07T02:02:15;4.80;99.90
7738;DHT22;29398;45.328;5.558;2024-03-07T02:03:18;4.80;99.90
7738;DHT22;29398;45.328;5.558;2024-03-07T02:04:19;4.80;99.90
7738;DHT22;29398;45.328;5.558;2024-03-07T02:05:21;4.80;99.90
7738;DHT22;29398;45.328;5.558;2024-03-07T02:06:23;4.80;99.90
7738;DHT22;29398;45.328;5.558;2024-03-07T02:07:26;4.80;99.90
7738;DHT22;29398;45.328;5.558;2024-03-07T02:08:27;4.70;99.90
7738;DHT22;29398;45.328;5.558;2024-03-07T02:09:29;4.80;99.90
7738;DHT22;29398;45.328;5.558;2024-03-07T02:10:30;4.80;99.90
7738;DHT22;29398;45.328;5.558;2024-03-07T02:11:32;4.80;99.90
7738;DHT22;29398;45.328;5.558;2024-03-07T02:12:33;4.80;99.90
7738;DHT22;29398;45.328;5.558;2024-03-07T02:13:35;4.70;99.90
7738;DHT22;29398;45.328;5.558;2024-03-07T02:14:36;4.70;99.90
7738;DHT22;29398;45.328;5.558;2024-03-07T02:15:38;4.70;99.90
7738;DHT22;29398;45.328;5.558;2024-03-07T02:16:39;4.80;99.90
7738;DHT22;29398;45.328;5.558;2024-03-07T02:17:41;4.80;99.90
7738;DHT22;29398;45.328;5.558;2024-03-07T02:18:44;4.80;99.90
7738;DHT22;29398;45.328;5.558;2024-03-07T02:19:46;4.70;99.90
7738;DHT22;29398;45.328;5.558;2024-03-07T02:20:48;4.80;99.90
7738;DHT22;29398;45.328;5.558;2024-03-07T02:21:50;4.80;99.90
7738;DHT22;29398;45.328;5.558;2024-03-07T02:22:51;4.80;99.90
7738;DHT22;29398;45.328;5.558;2024-03-07T02:23:53;4.80;99.90
7738;DHT22;29398;45.328;5.558;2024-03-07T02:24:55;4.80;99.90
7738;DHT22;29398;45.328;5.558;2024-03-07T02:25:56;4.80;99.90
7738;DHT22;29398;45.328;5.558;2024-03-07T02:26:58;4.80;99.90
7738;DHT22;29398;45.328;5.558;2024-03-07T02:28:00;4.80;99.90
7738;DHT22;29398;45.328;5.558;2024-03-07T02:29:05;4.80;99.90
7738;DHT22;29398;45.328;5.558;2024-03-07T02:30:07;4.80;99.90
7738;DHT22;29398;45.328;5.558;2024-03-07T02:31:09;4.80;99.90
7738;DHT22;29398;45.328;5.558;2024-03-07T02:32:10;4.80;99.90
7738;DHT22;29398;45.328;5.558;2024-03-07T02:33:12;4.80;99.90
7738;DHT22;29398;45.328;5.558;2024-03-07T02:34:13;4.80;99.90
7738;DHT22;29398;45.328;5.558;2024-03-07T02:35:15;4.80;99.90
7738;DHT22;29398;45.328;5.558;2024-03-07T02:36:18;4.80;99.90
7738;DHT22;29398;45.328;5.558;2024-03-07T02:37:20;4.80;99.90
7738;DHT22;29398;45.328;5.558;2024-03-07T02:38:21;4.80;99.90
7738;DHT22;29398;45.328;5.558;2024-03-07T02:39:23;4.70;99.90
7738;DHT22;29398;45.328;5.558;2024-03-07T02:40:25;4.70;99.90
7738;DHT22;29398;45.328;5.558;2024-03-07T02:41:27;4.70;99.90
7738;DHT22;29398;45.328;5.558;2024-03-07T02:42:28;4.70;99.90
7738;DHT22;29398;45.328;5.558;2024-03-07T02:43:30;4.70;99.90
7738;DHT22;29398;45.328;5.558;2024-03-07T02:44:31;4.70;99.90
7738;DHT22;29398;45.328;5.558;2024-03-07T02:45:33;4.70;99.90
7738;DHT22;29398;45.328;5.558;2024-03-07T02:46:34;4.20;99.90
7738;DHT22;29398;45.328;5.558;2024-03-07T02:47:37;4.60;99.90
7738;DHT22;29398;45.328;5.558;2024-03-07T02:48:39;4.50;99.90
7738;DHT22;29398;45.328;5.558;2024-03-07T02:49:40;4.60;99.90
7738;DHT22;29398;45.328;5.558;2024-03-07T02:50:42;4.60;99.90
7738;DHT22;29398;45.328;5.558;2024-03-07T02:51:44;4.60;99.90
7738;DHT22;29398;45.328;5.558;2024-03-07T02:52:47;4.50;99.90
7738;DHT22;29398;45.328;5.558;2024-03-07T02:53:48;4.50;99.90
7738;DHT22;29398;45.328;5.558;2024-03-07T02:54:50;4.50;99.90
7738;DHT22;29398;45.328;5.558;2024-03-07T02:55:51;4.50;99.90
7738;DHT22;29398;45.328;5.558;2024-03-07T02:56:53;4.50;99.90
7738;DHT22;29398;45.328;5.558;2024-03-07T02:57:54;4.50;99.90
7738;DHT22;29398;45.328;5.558;2024-03-07T02:58:58;4.50;99.90
7738;DHT22;29398;45.328;5.558;2024-03-07T02:59:59;4.60;99.90
7738;DHT22;29398;45.328;5.558;2024-03-07T03:01:00;4.60;99.90
7738;DHT22;29398;45.328;5.558;2024-03-07T03:02:03;4.60;99.90
7738;DHT22;29398;45.328;5.558;2024-03-07T03:03:04;4.60;99.90
7738;DHT22;29398;45.328;5.558;2024-03-07T03:04:06;4.60;99.90
7738;DHT22;29398;45.328;5.558;2024-03-07T03:05:08;4.60;99.90
7738;DHT22;29398;45.328;5.558;2024-03-07T03:06:10;4.60;99.90
7738;DHT22;29398;45.328;5.558;2024-03-07T03:07:13;4.70;99.90
7738;DHT22;29398;45.328;5.558;2024-03-07T03:08:14;4.60;99.90
7738;DHT22;29398;45.328;5.558;2024-03-07T03:09:16;4.70;99.90
7738;DHT22;29398;45.328;5.558;2024-03-07T03:10:19;4.70;99.90
7738;DHT22;29398;45.328;5.558;2024-03-07T03:11:21;4.70;99.90
7738;DHT22;29398;45.328;5.558;2024-03-07T03:12:23;4.70;99.90
7738;DHT22;29398;45.328;5.558;2024-03-07T03:13:24;4.70;99.90
7738;DHT22;29398;45.328;5.558;2024-03-07T03:14:28;4.70;99.90
7738;DHT22;29398;45.328;5.558;2024-03-07T03:15:29;4.70;99.90
7738;DHT22;29398;45.328;5.558;2024-03-07T03:16:31;4.70;99.90
7738;DHT22;29398;45.328;5.558;2024-03-07T03:17:33;4.80;99.90
7738;DHT22;29398;45.328;5.558;2024-03-07T03:18:34;4.80;99.90
7738;DHT22;29398;45.328;5.558;2024-03-07T03:19:36;4.80;99.90
7738;DHT22;29398;45.328;5.558;2024-03-07T03:20:37;4.80;99.90
7738;DHT22;29398;45.328;5.558;2024-03-07T03:21:40;4.80;99.90
7738;DHT22;29398;45.328;5.558;2024-03-07T03:22:42;4.80;99.90
7738;DHT22;29398;45.328;5.558;2024-03-07T03:23:45;4.80;99.90
7738;DHT22;29398;45.328;5.558;2024-03-07T03:24:47;4.80;99.90
7738;DHT22;29398;45.328;5.558;2024-03-07T03:25:49;4.80;99.90
7738;DHT22;29398;45.328;5.558;2024-03-07T03:26:50;4.80;99.90
7738;DHT22;29398;45.328;5.558;2024-03-07T03:27:52;4.80;99.90
7738;DHT22;29398;45.328;5.558;2024-03-07T03:28:53;4.80;99.90
7738;DHT22;29398;45.328;5.558;2024-03-07T03:29:55;4.80;99.90
7738;DHT22;29398;45.328;5.558;2024-03-07T03:30:56;4.80;99.90
7738;DHT22;29398;45.328;5.558;2024-03-07T03:31:58;4.90;99.90
7738;DHT22;29398;45.328;5.558;2024-03-07T03:32:59;4.90;99.90
7738;DHT22;29398;45.328;5.558;2024-03-07T03:34:01;4.90;99.90
7738;DHT22;29398;45.328;5.558;2024-03-07T03:35:03;4.90;99.90
7738;DHT22;29398;45.328;5.558;2024-03-07T03:36:05;4.90;99.90
7738;DHT22;29398;45.328;5.558;2024-03-07T03:37:07;4.90;99.90
7738;DHT22;29398;45.328;5.558;2024-03-07T03:38:11;4.90;99.90
7738;DHT22;29398;45.328;5.558;2024-03-07T03:39:12;5.00;99.90
7738;DHT22;29398;45.328;5.558;2024-03-07T03:40:14;4.90;99.90
7738;DHT22;29398;45.328;5.558;2024-03-07T03:41:15;4.90;99.90
7738;DHT22;29398;45.328;5.558;2024-03-07T03:42:17;4.90;99.90
7738;DHT22;29398;45.328;5.558;2024-03-07T03:43:18;4.90;99.90
7738;DHT22;29398;45.328;5.558;2024-03-07T03:44:20;4.90;99.90
7738;DHT22;29398;45.328;5.558;2024-03-07T03:45:21;4.90;99.90
7738;DHT22;29398;45.328;5.558;2024-03-07T03:46:26;4.90;99.90
7738;DHT22;29398;45.328;5.558;2024-03-07T03:47:27;4.90;99.90
7738;DHT22;29398;45.328;5.558;2024-03-07T03:48:29;4.80;99.90
7738;DHT22;29398;45.328;5.558;2024-03-07T03:49:30;4.80;99.90
7738;DHT22;29398;45.328;5.558;2024-03-07T03:50:32;4.80;99.90
7738;DHT22;29398;45.328;5.558;2024-03-07T03:51:33;4.80;99.90
7738;DHT22;29398;45.328;5.558;2024-03-07T03:52:35;4.80;99.90
7738;DHT22;29398;45.328;5.558;2024-03-07T03:53:38;4.80;99.90
7738;DHT22;29398;45.328;5.558;2024-03-07T03:54:41;4.80;99.90
7738;DHT22;29398;45.328;5.558;2024-03-07T03:55:42;4.80;99.90
7738;DHT22;29398;45.328;5.558;2024-03-07T03:56:44;4.80;99.90
7738;DHT22;29398;45.328;5.558;2024-03-07T03:57:45;4.80;99.90
7738;DHT22;29398;45.328;5.558;2024-03-07T03:58:48;4.90;99.90
7738;DHT22;29398;45.328;5.558;2024-03-07T03:59:49;4.90;99.90
7738;DHT22;29398;45.328;5.558;2024-03-07T04:00:51;4.90;99.90
7738;DHT22;29398;45.328;5.558;2024-03-07T04:01:52;4.90;99.90
7738;DHT22;29398;45.328;5.558;2024-03-07T04:02:54;4.90;99.90
7738;DHT22;29398;45.328;5.558;2024-03-07T04:03:55;4.90;99.90
7738;DHT22;29398;45.328;5.558;2024-03-07T04:04:58;4.90;99.90
7738;DHT22;29398;45.328;5.558;2024-03-07T04:06:00;4.90;99.90
7738;DHT22;29398;45.328;5.558;2024-03-07T04:07:02;4.90;99.90
7738;DHT22;29398;45.328;5.558;2024-03-07T04:08:04;4.90;99.90
7738;DHT22;29398;45.328;5.558;2024-03-07T04:09:07;4.90;99.90
7738;DHT22;29398;45.328;5.558;2024-03-07T04:10:09;4.90;99.90
7738;DHT22;29398;45.328;5.558;2024-03-07T04:11:11;4.90;99.90
7738;DHT22;29398;45.328;5.558;2024-03-07T04:12:13;4.90;99.90
7738;DHT22;29398;45.328;5.558;2024-03-07T04:13:14;4.90;99.90
7738;DHT22;29398;45.328;5.558;2024-03-07T04:14:16;4.90;99.90
7738;DHT22;29398;45.328;5.558;2024-03-07T04:15:18;4.90;99.90
7738;DHT22;29398;45.328;5.558;2024-03-07T04:16:20;4.80;99.90
7738;DHT22;29398;45.328;5.558;2024-03-07T04:17:21;4.90;99.90
7738;DHT22;29398;45.328;5.558;2024-03-07T04:18:23;4.80;99.90
7738;DHT22;29398;45.328;5.558;2024-03-07T04:19:24;4.80;99.90
7738;DHT22;29398;45.328;5.558;2024-03-07T04:20:26;4.90;99.90
7738;DHT22;29398;45.328;5.558;2024-03-07T04:21:29;4.90;99.90
7738;DHT22;29398;45.328;5.558;2024-03-07T04:22:30;4.90;99.90
7738;DHT22;29398;45.328;5.558;2024-03-07T04:23:31;4.90;99.90
7738;DHT22;29398;45.328;5.558;2024-03-07T04:24:34;4.90;99.90
7738;DHT22;29398;45.328;5.558;2024-03-07T04:25:35;4.90;99.90
7738;DHT22;29398;45.328;5.558;2024-03-07T04:26:37;4.90;99.90
7738;DHT22;29398;45.328;5.558;2024-03-07T04:27:38;4.90;99.90
7738;DHT22;29398;45.328;5.558;2024-03-07T04:28:41;4.90;99.90
7738;DHT22;29398;45.328;5.558;2024-03-07T04:29:42;5.00;99.90
7738;DHT22;29398;45.328;5.558;2024-03-07T04:30:44;5.00;99.90
7738;DHT22;29398;45.328;5.558;2024-03-07T04:31:45;5.00;99.90
7738;DHT22;29398;45.328;5.558;2024-03-07T04:32:47;4.90;99.90
7738;DHT22;29398;45.328;5.558;2024-03-07T04:33:48;4.90;99.90
7738;DHT22;29398;45.328;5.558;2024-03-07T04:34:51;4.90;99.90
7738;DHT22;29398;45.328;5.558;2024-03-07T04:35:52;6.00;99.90
7738;DHT22;29398;45.328;5.558;2024-03-07T04:36:55;4.90;99.90
7738;DHT22;29398;45.328;5.558;2024-03-07T04:37:57;4.90;99.90
7738;DHT22;29398;45.328;5.558;2024-03-07T04:38:58;4.90;99.90
7738;DHT22;29398;45.328;5.558;2024-03-07T04:40:03;4.90;99.90
7738;DHT22;29398;45.328;5.558;2024-03-07T04:41:05;4.90;99.90
7738;DHT22;29398;45.328;5.558;2024-03-07T04:42:08;4.90;99.90
7738;DHT22;29398;45.328;5.558;2024-03-07T04:43:09;4.90;99.90
7738;DHT22;29398;45.328;5.558;2024-03-07T04:44:11;4.90;99.90
7738;DHT22;29398;45.328;5.558;2024-03-07T04:45:13;4.90;99.90
7738;DHT22;29398;45.328;5.558;2024-03-07T04:46:14;4.90;99.90
7738;DHT22;29398;45.328;5.558;2024-03-07T04:47:15;4.90;99.90
7738;DHT22;29398;45.328;5.558;2024-03-07T04:48:17;4.90;99.90
7738;DHT22;29398;45.328;5.558;2024-03-07T04:49:18;4.90;99.90
7738;DHT22;29398;45.328;5.558;2024-03-07T04:50:20;4.90;99.90
7738;DHT22;29398;45.328;5.558;2024-03-07T04:51:21;4.90;99.90
7738;DHT22;29398;45.328;5.558;2024-03-07T04:52:23;4.90;99.90
7738;DHT22;29398;45.328;5.558;2024-03-07T04:53:24;4.90;99.90
7738;DHT22;29398;45.328;5.558;2024-03-07T04:54:28;4.90;99.90
7738;DHT22;29398;45.328;5.558;2024-03-07T04:55:30;4.90;99.90
7738;DHT22;29398;45.328;5.558;2024-03-07T04:56:31;4.90;99.90
7738;DHT22;29398;45.328;5.558;2024-03-07T04:57:34;4.90;99.90
7738;DHT22;29398;45.328;5.558;2024-03-07T04:58:35;4.90;99.90
7738;DHT22;29398;45.328;5.558;2024-03-07T04:59:37;4.90;99.90
7738;DHT22;29398;45.328;5.558;2024-03-07T05:00:38;4.90;99.90
7738;DHT22;29398;45.328;5.558;2024-03-07T05:01:40;4.80;99.90
7738;DHT22;29398;45.328;5.558;2024-03-07T05:02:41;4.80;99.90
7738;DHT22;29398;45.328;5.558;2024-03-07T05:03:42;4.80;99.90
7738;DHT22;29398;45.328;5.558;2024-03-07T05:04:44;4.80;99.90
7738;DHT22;29398;45.328;5.558;2024-03-07T05:05:45;4.80;99.90
7738;DHT22;29398;45.328;5.558;2024-03-07T05:06:47;4.80;99.90
7738;DHT22;29398;45.328;5.558;2024-03-07T05:07:48;4.90;99.90
7738;DHT22;29398;45.328;5.558;2024-03-07T05:08:50;4.90;99.90
7738;DHT22;29398;45.328;5.558;2024-03-07T05:09:52;4.80;99.90
7738;DHT22;29398;45.328;5.558;2024-03-07T05:10:55;4.80;99.90
7738;DHT22;29398;45.328;5.558;2024-03-07T05:11:57;4.80;99.90
7738;DHT22;29398;45.328;5.558;2024-03-07T05:12:58;4.80;99.90
7738;DHT22;29398;45.328;5.558;2024-03-07T05:14:00;4.80;99.90
7738;DHT22;29398;45.328;5.558;2024-03-07T05:15:02;4.80;99.90
7738;DHT22;29398;45.328;5.558;2024-03-07T05:16:05;4.80;99.90
7738;DHT22;29398;45.328;5.558;2024-03-07T05:17:07;4.80;99.90
7738;DHT22;29398;45.328;5.558;2024-03-07T05:18:09;4.80;99.90
7738;DHT22;29398;45.328;5.558;2024-03-07T05:19:13;4.70;99.90
7738;DHT22;29398;45.328;5.558;2024-03-07T05:20:15;4.70;99.90
7738;DHT22;29398;45.328;5.558;2024-03-07T05:21:17;4.70;99.90
7738;DHT22;29398;45.328;5.558;2024-03-07T05:22:39;4.70;99.90
7738;DHT22;29398;45.328;5.558;2024-03-07T05:23:45;4.70;99.90
7738;DHT22;29398;45.328;5.558;2024-03-07T05:24:46;4.70;99.90
7738;DHT22;29398;45.328;5.558;2024-03-07T05:25:48;4.60;99.90
7738;DHT22;29398;45.328;5.558;2024-03-07T05:26:51;4.60;99.90
7738;DHT22;29398;45.328;5.558;2024-03-07T05:27:53;4.70;99.90
7738;DHT22;29398;45.328;5.558;2024-03-07T05:28:55;4.70;99.90
7738;DHT22;29398;45.328;5.558;2024-03-07T05:29:56;4.70;99.90
7738;DHT22;29398;45.328;5.558;2024-03-07T05:30:58;4.70;99.90
7738;DHT22;29398;45.328;5.558;2024-03-07T05:32:20;4.60;99.90
7738;DHT22;29398;45.328;5.558;2024-03-07T05:33:21;4.60;99.90
7738;DHT22;29398;45.328;5.558;2024-03-07T05:34:23;4.60;99.90
7738;DHT22;29398;45.328;5.558;2024-03-07T05:35:24;4.60;99.90
7738;DHT22;29398;45.328;5.558;2024-03-07T05:36:26;4.60;99.90
7738;DHT22;29398;45.328;5.558;2024-03-07T05:37:27;4.60;99.90
7738;DHT22;29398;45.328;5.558;2024-03-07T05:38:29;4.60;99.90
7738;DHT22;29398;45.328;5.558;2024-03-07T05:39:30;4.60;99.90
7738;DHT22;29398;45.328;5.558;2024-03-07T05:40:32;4.60;99.90
7738;DHT22;29398;45.328;5.558;2024-03-07T05:41:34;4.60;99.90
7738;DHT22;29398;45.328;5.558;2024-03-07T05:42:37;4.60;99.90
7738;DHT22;29398;45.328;5.558;2024-03-07T05:43:38;4.60;99.90
7738;DHT22;29398;45.328;5.558;2024-03-07T05:44:40;4.60;99.90
7738;DHT22;29398;45.328;5.558;2024-03-07T05:45:42;4.60;99.90
7738;DHT22;29398;45.328;5.558;2024-03-07T05:46:44;4.60;99.90
7738;DHT22;29398;45.328;5.558;2024-03-07T05:47:47;4.60;99.90
7738;DHT22;29398;45.328;5.558;2024-03-07T05:48:49;4.60;99.90
7738;DHT22;29398;45.328;5.558;2024-03-07T05:49:52;4.60;99.90
7738;DHT22;29398;45.328;5.558;2024-03-07T05:50:54;4.60;99.90
7738;DHT22;29398;45.328;5.558;2024-03-07T05:51:56;4.60;99.90
7738;DHT22;29398;45.328;5.558;2024-03-07T05:52:58;4.50;99.90
7738;DHT22;29398;45.328;5.558;2024-03-07T05:53:59;4.50;99.90
7738;DHT22;29398;45.328;5.558;2024-03-07T05:55:01;2.60;99.90
7738;DHT22;29398;45.328;5.558;2024-03-07T05:56:04;4.60;99.90
7738;DHT22;29398;45.328;5.558;2024-03-07T05:57:08;4.60;99.90
7738;DHT22;29398;45.328;5.558;2024-03-07T05:58:12;4.50;99.90
7738;DHT22;29398;45.328;5.558;2024-03-07T05:59:14;4.50;99.90
7738;DHT22;29398;45.328;5.558;2024-03-07T06:00:16;4.60;99.90
7738;DHT22;29398;45.328;5.558;2024-03-07T06:01:27;4.60;99.90
7738;DHT22;29398;45.328;5.558;2024-03-07T06:02:28;4.50;99.90
7738;DHT22;29398;45.328;5.558;2024-03-07T06:03:30;4.50;99.90
7738;DHT22;29398;45.328;5.558;2024-03-07T06:04:31;4.50;99.90
7738;DHT22;29398;45.328;5.558;2024-03-07T06:05:34;4.50;99.90
7738;DHT22;29398;45.328;5.558;2024-03-07T06:06:36;4.60;99.90
7738;DHT22;29398;45.328;5.558;2024-03-07T06:07:38;4.60;99.90
7738;DHT22;29398;45.328;5.558;2024-03-07T06:08:40;4.50;99.90
7738;DHT22;29398;45.328;5.558;2024-03-07T06:09:43;4.50;99.90
7738;DHT22;29398;45.328;5.558;2024-03-07T06:10:46;3.60;99.90
7738;DHT22;29398;45.328;5.558;2024-03-07T06:11:48;4.50;99.90
7738;DHT22;29398;45.328;5.558;2024-03-07T06:12:50;4.50;99.90
7738;DHT22;29398;45.328;5.558;2024-03-07T06:13:53;4.50;99.90
7738;DHT22;29398;45.328;5.558;2024-03-07T06:14:55;4.40;99.90
7738;DHT22;29398;45.328;5.558;2024-03-07T06:15:56;4.40;99.90
7738;DHT22;29398;45.328;5.558;2024-03-07T06:16:59;4.40;99.90
7738;DHT22;29398;45.328;5.558;2024-03-07T06:18:01;4.40;99.90
7738;DHT22;29398;45.328;5.558;2024-03-07T06:19:04;4.40;99.90
7738;DHT22;29398;45.328;5.558;2024-03-07T06:20:08;4.40;99.90
7738;DHT22;29398;45.328;5.558;2024-03-07T06:21:23;4.40;99.90
7738;DHT22;29398;45.328;5.558;2024-03-07T06:22:24;4.40;99.90
7738;DHT22;29398;45.328;5.558;2024-03-07T06:23:26;4.40;99.90
7738;DHT22;29398;45.328;5.558;2024-03-07T06:24:29;4.40;99.90
7738;DHT22;29398;45.328;5.558;2024-03-07T06:25:32;4.40;99.90
7738;DHT22;29398;45.328;5.558;2024-03-07T06:26:38;4.40;99.90
7738;DHT22;29398;45.328;5.558;2024-03-07T06:27:47;4.30;99.90
7738;DHT22;29398;45.328;5.558;2024-03-07T06:28:49;4.40;99.90
7738;DHT22;29398;45.328;5.558;2024-03-07T06:29:52;4.40;99.90
7738;DHT22;29398;45.328;5.558;2024-03-07T06:30:54;4.40;99.90
7738;DHT22;29398;45.328;5.558;2024-03-07T06:31:55;4.40;99.90
7738;DHT22;29398;45.328;5.558;2024-03-07T06:32:57;4.40;99.90
7738;DHT22;29398;45.328;5.558;2024-03-07T06:33:59;4.40;99.90
7738;DHT22;29398;45.328;5.558;2024-03-07T06:35:00;4.40;99.90
7738;DHT22;29398;45.328;5.558;2024-03-07T06:36:03;4.30;99.90
7738;DHT22;29398;45.328;5.558;2024-03-07T06:37:04;4.40;99.90
7738;DHT22;29398;45.328;5.558;2024-03-07T06:38:07;4.40;99.90
7738;DHT22;29398;45.328;5.558;2024-03-07T06:39:08;4.40;99.90
7738;DHT22;29398;45.328;5.558;2024-03-07T06:40:11;4.40;99.90
7738;DHT22;29398;45.328;5.558;2024-03-07T06:41:15;4.40;99.90
7738;DHT22;29398;45.328;5.558;2024-03-07T06:42:16;4.40;99.90
7738;DHT22;29398;45.328;5.558;2024-03-07T06:43:18;4.40;99.90
7738;DHT22;29398;45.328;5.558;2024-03-07T06:44:19;4.50;99.90
7738;DHT22;29398;45.328;5.558;2024-03-07T06:45:25;4.40;99.90